Terminal Aerodrome Forecast
Issued by NWS Twin Cities, MN

Home | Current Version | Previous Version | Text Only | Print | Product List | Glossary On
Versions: 1 2 3 4 5 6 7 8 9 10 11 12 13 14 15 16 17 18 19 20
173
FTUS43 KMPX 210520
TAFEAU
TAF
KEAU 210520Z 2106/2206 16008KT P6SM SCT020 SCT120
      TEMPO 2111/2114 4SM -TSRA BKN020 BKN050CB
     FM211500 22007KT P6SM SCT120 OVC250=

USA.gov is the U.S. government's official web portal to all federal, state and local government web resources and services.